Time;durP1;ratioP1;P1;durP2;ratioP2;P2;SDS_P1;SDS_P2;PMS_P1;PMS_P2;Temp;Humidity;BMP_temperature;BMP_pressure;BME280_temperature;BME280_humidity;BME280_pressure;Samples;Min_cycle;Max_cycle;Signal;HPM_P1;HPM_P2
2023/08/18 00:00:25;;;;;;;4.17;1.50;;;16.80;99.90;;;;;;5115797;27;20241;-55
2023/08/18 00:02:52;;;;;;;4.53;1.57;;;16.80;99.90;;;;;;5127079;27;20201;-47
2023/08/18 00:05:20;;;;;;;2.90;1.60;;;16.80;99.90;;;;;;5132237;27;20216;-48
2023/08/18 00:07:47;;;;;;;3.40;1.40;;;16.80;99.90;;;;;;5127478;27;20188;-51
2023/08/18 00:10:14;;;;;;;2.10;1.30;;;16.80;99.90;;;;;;5137065;27;20193;-49
2023/08/18 00:12:40;;;;;;;2.50;1.47;;;16.80;99.90;;;;;;5115114;27;20188;-54
2023/08/18 00:15:07;;;;;;;4.80;1.50;;;16.70;99.90;;;;;;5121453;27;20204;-49
2023/08/18 00:17:35;;;;;;;1.50;1.13;;;16.70;99.90;;;;;;5124235;27;20649;-51
2023/08/18 00:20:02;;;;;;;4.87;1.60;;;16.80;99.90;;;;;;5137246;27;20220;-47
2023/08/18 00:22:31;;;;;;;3.00;1.70;;;16.80;99.90;;;;;;5133581;27;20199;-53
2023/08/18 00:24:58;;;;;;;2.23;1.43;;;16.80;99.90;;;;;;5133211;27;20193;-48
2023/08/18 00:27:25;;;;;;;3.40;1.67;;;16.80;99.90;;;;;;5129787;27;20203;-54
2023/08/18 00:29:52;;;;;;;3.07;1.30;;;16.80;99.90;;;;;;5108097;27;20913;-51
2023/08/18 00:32:19;;;;;;;1.80;1.43;;;16.80;99.90;;;;;;5122265;27;20200;-54
2023/08/18 00:34:45;;;;;;;3.40;1.40;;;16.80;99.90;;;;;;5128409;27;20188;-49
2023/08/18 00:37:15;;;;;;;2.53;1.50;;;16.80;99.90;;;;;;5132792;27;20204;-47
2023/08/18 00:39:44;;;;;;;4.80;1.60;;;16.80;99.90;;;;;;5132154;27;20856;-53
2023/08/18 00:42:11;;;;;;;2.97;1.60;;;16.80;99.90;;;;;;5137140;27;20220;-48
2023/08/18 00:44:38;;;;;;;2.00;1.10;;;16.80;99.90;;;;;;5105050;27;20257;-49
2023/08/18 00:47:05;;;;;;;2.07;1.40;;;16.80;99.90;;;;;;5137379;27;20307;-49
2023/08/18 00:49:32;;;;;;;2.80;1.60;;;16.80;99.90;;;;;;5126681;27;20245;-52
2023/08/18 00:52:00;;;;;;;5.30;1.70;;;16.80;99.90;;;;;;5132490;27;20798;-51
2023/08/18 00:54:28;;;;;;;3.17;1.30;;;16.80;99.90;;;;;;5129333;27;20249;-53
2023/08/18 00:56:57;;;;;;;1.97;1.40;;;16.70;99.90;;;;;;5131044;27;20212;-48
2023/08/18 00:59:24;;;;;;;3.33;1.60;;;16.70;99.90;;;;;;5117499;27;20658;-51
2023/08/18 01:01:52;;;;;;;5.10;1.70;;;16.70;99.90;;;;;;5125645;27;21100;-51
2023/08/18 01:04:19;;;;;;;6.07;1.73;;;16.70;99.90;;;;;;5133465;27;20206;-51
2023/08/18 01:06:46;;;;;;;2.80;1.70;;;16.70;99.90;;;;;;5109681;27;20205;-48
2023/08/18 01:09:13;;;;;;;1.97;1.33;;;16.70;99.90;;;;;;5135116;27;20196;-53
2023/08/18 01:11:52;;;;;;;2.57;1.60;;;16.70;99.90;;;;;;5124575;27;20225;-54
2023/08/18 01:14:27;;;;;;;3.87;1.60;;;16.70;99.90;;;;;;5120420;27;20215;-52
2023/08/18 01:17:00;;;;;;;1.43;1.27;;;16.70;99.90;;;;;;5109107;27;20224;-53
2023/08/18 01:19:28;;;;;;;2.20;1.43;;;16.70;99.90;;;;;;5131125;27;20629;-54
2023/08/18 01:21:58;;;;;;;4.87;1.33;;;16.70;99.90;;;;;;5138648;27;20216;-49
2023/08/18 01:24:29;;;;;;;4.67;1.60;;;16.70;99.90;;;;;;5123623;27;20201;-56
2023/08/18 01:26:55;;;;;;;2.30;1.60;;;16.70;99.90;;;;;;5131464;27;20217;-45
2023/08/18 01:29:23;;;;;;;3.23;1.70;;;16.70;99.90;;;;;;5129575;27;20192;-56
2023/08/18 01:32:06;;;;;;;3.47;1.30;;;16.70;99.90;;;;;;5106937;27;20213;-49
2023/08/18 01:34:37;;;;;;;4.87;1.40;;;16.70;99.90;;;;;;5119523;27;20192;-46
2023/08/18 01:37:04;;;;;;;4.90;1.47;;;16.70;99.90;;;;;;5125170;27;20208;-48
2023/08/18 01:39:33;;;;;;;2.93;1.40;;;16.70;99.90;;;;;;5123912;27;20197;-56
2023/08/18 01:42:02;;;;;;;4.10;1.40;;;16.70;99.90;;;;;;5122324;27;20209;-47
2023/08/18 01:44:29;;;;;;;3.90;1.53;;;16.70;99.90;;;;;;5115994;27;20562;-56
2023/08/18 01:46:56;;;;;;;5.00;1.67;;;16.70;99.90;;;;;;5104317;27;20216;-49
2023/08/18 01:49:23;;;;;;;4.17;1.67;;;16.70;99.90;;;;;;5118344;27;20192;-57
2023/08/18 01:51:49;;;;;;;5.00;2.03;;;16.70;99.90;;;;;;5122118;27;20846;-50
2023/08/18 01:54:16;;;;;;;6.40;2.30;;;16.70;99.90;;;;;;5133047;27;20248;-54
2023/08/18 01:56:44;;;;;;;4.23;1.57;;;16.70;99.90;;;;;;5124733;27;20924;-48
2023/08/18 01:59:14;;;;;;;4.37;1.67;;;16.80;99.90;;;;;;5127842;27;20638;-49
2023/08/18 02:01:41;;;;;;;5.03;1.83;;;16.80;99.90;;;;;;5127052;27;20208;-48
2023/08/18 02:04:08;;;;;;;3.03;1.40;;;16.70;99.90;;;;;;5099135;27;20220;-45
2023/08/18 02:06:35;;;;;;;4.33;1.80;;;16.70;99.90;;;;;;5109144;27;20371;-58
2023/08/18 02:09:03;;;;;;;3.63;1.80;;;16.80;99.90;;;;;;5120421;27;20186;-46
2023/08/18 02:11:30;;;;;;;3.93;1.67;;;16.80;99.90;;;;;;5117011;27;20192;-59
2023/08/18 02:13:58;;;;;;;4.97;2.00;;;16.80;99.90;;;;;;5126332;27;20197;-45
2023/08/18 02:16:25;;;;;;;5.43;2.00;;;16.70;99.90;;;;;;5124986;27;20214;-57
2023/08/18 02:18:52;;;;;;;1.90;1.80;;;16.70;99.90;;;;;;5101674;27;20281;-47
2023/08/18 02:21:19;;;;;;;5.83;1.90;;;16.80;99.90;;;;;;5129493;27;20593;-57
2023/08/18 02:23:45;;;;;;;6.03;2.50;;;16.80;99.90;;;;;;5132479;27;20251;-48
2023/08/18 02:26:13;;;;;;;5.03;1.97;;;16.80;99.90;;;;;;5135109;27;20300;-51
2023/08/18 02:28:40;;;;;;;3.63;2.10;;;16.80;99.90;;;;;;5114238;27;20326;-47
2023/08/18 02:31:10;;;;;;;7.50;2.07;;;16.80;99.90;;;;;;5130879;27;20192;-47
2023/08/18 02:33:37;;;;;;;5.10;2.27;;;16.80;99.90;;;;;;5107521;27;20204;-46
2023/08/18 02:36:05;;;;;;;5.40;2.50;;;16.80;99.90;;;;;;5127041;27;20328;-47
2023/08/18 02:38:35;;;;;;;2.30;1.70;;;16.80;99.90;;;;;;5121365;27;20196;-52
2023/08/18 02:41:02;;;;;;;5.47;1.80;;;16.80;99.90;;;;;;5129319;27;20196;-50
2023/08/18 02:43:29;;;;;;;5.43;2.33;;;16.80;99.90;;;;;;5113767;27;20254;-55
2023/08/18 02:45:56;;;;;;;2.97;1.87;;;16.80;99.90;;;;;;5121398;27;20220;-49
2023/08/18 02:48:27;;;;;;;6.77;2.13;;;16.80;99.90;;;;;;5110655;27;20245;-53
2023/08/18 02:51:02;;;;;;;4.90;2.70;;;16.80;99.90;;;;;;5108601;27;20186;-50
2023/08/18 02:53:29;;;;;;;4.23;2.50;;;16.70;99.90;;;;;;5120848;27;20196;-54
2023/08/18 02:55:58;;;;;;;3.13;2.07;;;16.70;99.90;;;;;;5111519;27;20220;-49
2023/08/18 02:58:26;;;;;;;2.43;2.23;;;16.80;99.90;;;;;;5105438;27;20677;-48
2023/08/18 03:00:53;;;;;;;2.13;1.97;;;16.80;99.90;;;;;;5122609;27;20211;-52
2023/08/18 03:03:19;;;;;;;8.73;2.40;;;16.80;99.90;;;;;;5131249;27;20224;-49
2023/08/18 03:05:48;;;;;;;4.63;2.00;;;16.80;99.90;;;;;;5115677;27;20269;-54
2023/08/18 03:08:15;;;;;;;5.60;2.60;;;16.80;99.90;;;;;;5126731;27;20188;-53
2023/08/18 03:10:42;;;;;;;2.93;2.00;;;16.80;99.90;;;;;;5111655;27;20200;-48
2023/08/18 03:13:09;;;;;;;7.03;2.53;;;16.80;99.90;;;;;;5113758;27;20205;-54
2023/08/18 03:15:40;;;;;;;5.23;2.40;;;16.80;99.90;;;;;;5122620;27;20207;-53
2023/08/18 03:18:07;;;;;;;3.97;1.70;;;16.70;99.90;;;;;;5126084;27;20197;-51
2023/08/18 03:20:34;;;;;;;6.93;3.00;;;16.70;99.90;;;;;;5104889;27;20204;-52
2023/08/18 03:23:02;;;;;;;4.07;2.20;;;16.70;99.90;;;;;;5113207;27;20216;-49
2023/08/18 03:25:29;;;;;;;3.13;2.87;;;16.70;99.90;;;;;;5127732;27;20709;-54
2023/08/18 03:27:56;;;;;;;2.87;2.33;;;16.70;99.90;;;;;;5128467;27;20197;-48
2023/08/18 03:30:23;;;;;;;3.90;2.10;;;16.70;99.90;;;;;;5115166;27;20299;-53
2023/08/18 03:32:52;;;;;;;4.77;2.67;;;16.70;99.90;;;;;;5135419;27;20184;-50
2023/08/18 03:35:19;;;;;;;8.20;3.40;;;16.60;99.90;;;;;;5113540;27;20215;-50
2023/08/18 03:37:45;;;;;;;7.37;3.30;;;16.60;99.90;;;;;;5118325;27;20196;-54
2023/08/18 03:40:15;;;;;;;4.93;3.57;;;16.60;99.90;;;;;;5134488;27;20188;-52
2023/08/18 03:42:42;;;;;;;8.87;3.87;;;16.60;99.90;;;;;;5125099;27;20205;-50
2023/08/18 03:45:09;;;;;;;4.97;3.70;;;16.60;99.90;;;;;;5119047;27;20260;-47
2023/08/18 03:47:36;;;;;;;6.03;3.33;;;16.50;99.90;;;;;;5127569;27;20180;-50
2023/08/18 03:50:04;;;;;;;5.93;4.27;;;16.50;99.90;;;;;;5116444;27;20245;-49
2023/08/18 03:52:31;;;;;;;8.63;4.50;;;16.50;99.90;;;;;;5101028;27;20196;-51
2023/08/18 03:54:58;;;;;;;8.13;4.27;;;16.50;99.90;;;;;;5124895;27;20563;-51
2023/08/18 03:57:26;;;;;;;9.47;4.90;;;16.50;99.90;;;;;;5129187;27;20199;-52
2023/08/18 03:59:55;;;;;;;9.37;5.17;;;16.50;99.90;;;;;;5116403;27;20635;-53
2023/08/18 04:02:23;;;;;;;7.67;4.47;;;16.50;99.90;;;;;;5108311;27;20260;-54
2023/08/18 04:04:50;;;;;;;7.07;4.33;;;16.50;99.90;;;;;;5125757;27;20269;-48
2023/08/18 04:07:17;;;;;;;7.43;4.70;;;16.60;99.90;;;;;;5107658;27;20224;-49
2023/08/18 04:09:43;;;;;;;9.43;4.60;;;16.60;99.90;;;;;;5120128;27;20217;-49
2023/08/18 04:12:10;;;;;;;7.03;5.10;;;16.60;99.90;;;;;;5128315;27;20185;-50
2023/08/18 04:14:38;;;;;;;7.13;4.63;;;16.60;99.90;;;;;;5114682;27;20185;-51
2023/08/18 04:17:05;;;;;;;7.60;5.60;;;16.60;99.90;;;;;;5115958;27;20230;-53
2023/08/18 04:19:32;;;;;;;11.57;4.90;;;16.60;99.90;;;;;;5121838;27;20305;-51
2023/08/18 04:21:59;;;;;;;10.13;4.77;;;16.70;99.90;;;;;;5126898;27;20299;-50
2023/08/18 04:24:26;;;;;;;7.67;4.80;;;16.70;99.90;;;;;;5098243;27;20205;-52
2023/08/18 04:26:59;;;;;;;10.17;4.83;;;16.70;99.90;;;;;;5121180;27;20207;-51
2023/08/18 04:29:26;;;;;;;12.53;5.73;;;16.70;99.90;;;;;;5124453;27;20200;-54
2023/08/18 04:31:56;;;;;;;11.40;4.80;;;16.70;99.90;;;;;;5113540;27;20243;-53
2023/08/18 04:34:22;;;;;;;6.90;4.53;;;16.80;99.90;;;;;;5124457;27;20677;-51
2023/08/18 04:36:49;;;;;;;5.20;4.70;;;16.70;99.90;;;;;;5127958;27;20208;-53
2023/08/18 04:39:17;;;;;;;9.03;4.27;;;16.80;99.90;;;;;;5104841;27;20219;-52
2023/08/18 04:41:44;;;;;;;8.53;5.07;;;16.80;99.90;;;;;;5121257;27;20212;-52
2023/08/18 04:44:11;;;;;;;9.43;5.67;;;16.80;99.90;;;;;;5131465;27;20203;-52
2023/08/18 04:46:39;;;;;;;9.23;5.87;;;16.90;99.90;;;;;;5103847;27;20232;-54
2023/08/18 04:49:13;;;;;;;6.33;4.77;;;16.90;99.90;;;;;;5124781;27;20216;-54
2023/08/18 04:51:41;;;;;;;12.60;4.77;;;16.90;99.90;;;;;;5119731;27;20205;-50
2023/08/18 04:54:08;;;;;;;10.00;4.73;;;16.90;99.90;;;;;;5085650;27;20201;-50
2023/08/18 04:56:35;;;;;;;12.50;5.77;;;17.00;99.90;;;;;;5113174;27;20789;-54
2023/08/18 04:59:01;;;;;;;8.67;5.33;;;17.00;99.90;;;;;;5118521;27;20212;-51
2023/08/18 05:01:29;;;;;;;6.57;5.40;;;17.00;99.90;;;;;;5127267;27;20605;-56
2023/08/18 05:03:57;;;;;;;9.57;5.20;;;17.10;99.90;;;;;;5110970;27;20204;-50
2023/08/18 05:06:25;;;;;;;8.77;5.63;;;17.10;99.90;;;;;;5120348;27;20213;-52
2023/08/18 05:08:52;;;;;;;7.50;6.20;;;17.10;99.90;;;;;;5090833;27;21646;-51
2023/08/18 05:11:18;;;;;;;10.53;6.10;;;17.10;99.90;;;;;;5108617;27;20209;-49
2023/08/18 05:13:45;;;;;;;11.40;6.00;;;17.10;99.90;;;;;;5097651;27;20201;-48
2023/08/18 05:16:12;;;;;;;10.80;5.90;;;17.10;99.90;;;;;;5101718;27;20227;-53
2023/08/18 05:18:39;;;;;;;8.10;5.80;;;17.10;99.90;;;;;;5093846;27;20229;-52
2023/08/18 05:21:06;;;;;;;12.43;6.93;;;17.20;99.90;;;;;;5109458;27;20249;-52
2023/08/18 05:23:34;;;;;;;10.33;7.70;;;17.20;99.90;;;;;;5109056;27;20309;-53
2023/08/18 05:26:01;;;;;;;9.27;6.87;;;17.20;99.90;;;;;;5094454;27;20291;-53
2023/08/18 05:28:29;;;;;;;15.83;7.33;;;17.20;99.90;;;;;;5098429;27;20212;-49
2023/08/18 05:30:56;;;;;;;13.23;6.53;;;17.20;99.90;;;;;;5114239;27;20276;-48
2023/08/18 05:33:22;;;;;;;10.90;7.00;;;17.20;99.90;;;;;;5103276;27;20205;-58
2023/08/18 05:35:49;;;;;;;10.67;7.50;;;17.30;99.90;;;;;;5120762;27;20221;-46
2023/08/18 05:38:16;;;;;;;12.57;7.40;;;17.30;99.90;;;;;;5127700;27;20214;-57
2023/08/18 05:40:48;;;;;;;11.93;8.13;;;17.40;99.90;;;;;;5097235;27;20192;-45
2023/08/18 05:43:16;;;;;;;8.03;6.97;;;17.40;99.90;;;;;;5108670;27;20315;-56
2023/08/18 05:45:44;;;;;;;13.73;7.00;;;17.40;99.90;;;;;;5109526;27;20988;-50
2023/08/18 05:48:11;;;;;;;10.73;7.10;;;17.40;99.90;;;;;;5120988;27;20193;-56
2023/08/18 05:50:38;;;;;;;13.07;8.40;;;17.50;99.90;;;;;;5108331;27;20997;-50
2023/08/18 05:53:05;;;;;;;8.73;6.40;;;17.50;99.90;;;;;;5129568;27;20197;-46
2023/08/18 05:55:33;;;;;;;12.53;7.50;;;17.50;99.90;;;;;;5093032;27;20567;-47
2023/08/18 05:58:02;;;;;;;10.43;7.13;;;17.50;99.90;;;;;;5117642;27;20207;-47
2023/08/18 06:00:30;;;;;;;11.20;7.30;;;17.60;99.90;;;;;;5110450;27;20852;-53
2023/08/18 06:02:57;;;;;;;13.90;7.83;;;17.60;99.90;;;;;;5115385;27;20300;-50
2023/08/18 06:05:26;;;;;;;14.27;7.00;;;17.60;99.90;;;;;;5099710;27;20216;-57
2023/08/18 06:07:53;;;;;;;12.90;7.40;;;17.70;99.90;;;;;;5120859;27;20658;-51
2023/08/18 06:10:20;;;;;;;12.93;7.80;;;17.70;99.90;;;;;;5098644;27;20611;-58
2023/08/18 06:12:47;;;;;;;13.30;8.73;;;17.70;99.90;;;;;;5111620;27;20193;-44
2023/08/18 06:15:17;;;;;;;11.77;8.97;;;17.70;99.90;;;;;;5108872;27;20243;-56
2023/08/18 06:17:44;;;;;;;12.73;9.23;;;17.70;99.90;;;;;;5115456;27;20279;-45
2023/08/18 06:20:12;;;;;;;10.50;8.20;;;17.70;99.90;;;;;;5107400;27;20287;-54
2023/08/18 06:22:39;;;;;;;15.23;9.10;;;17.70;99.90;;;;;;5112383;27;20240;-48
2023/08/18 06:25:08;;;;;;;15.43;9.07;;;17.80;99.90;;;;;;5117919;27;20654;-51
2023/08/18 06:27:35;;;;;;;11.00;9.30;;;17.80;99.90;;;;;;5108681;27;20200;-48
2023/08/18 06:30:02;;;;;;;10.97;7.60;;;17.80;99.90;;;;;;5139521;27;20192;-50
2023/08/18 06:32:30;;;;;;;16.87;9.37;;;17.90;99.90;;;;;;5116268;27;20248;-54
2023/08/18 06:34:57;;;;;;;17.77;8.63;;;17.90;99.90;;;;;;5116073;27;20204;-48
2023/08/18 06:37:25;;;;;;;15.60;8.53;;;17.90;99.90;;;;;;5112218;27;20559;-59
2023/08/18 06:39:53;;;;;;;15.23;8.80;;;18.00;99.90;;;;;;5110726;27;20197;-51
2023/08/18 06:42:20;;;;;;;11.43;8.73;;;18.10;99.90;;;;;;5086898;27;20212;-52
2023/08/18 06:44:47;;;;;;;15.20;9.53;;;18.10;99.90;;;;;;5121734;27;20193;-59
2023/08/18 06:47:13;;;;;;;22.90;10.40;;;18.10;99.90;;;;;;5105803;27;20297;-48
2023/08/18 06:49:42;;;;;;;12.83;9.07;;;18.10;99.90;;;;;;5105861;27;20205;-60
2023/08/18 06:52:08;;;;;;;13.07;8.97;;;18.10;99.90;;;;;;5110102;27;20254;-55
2023/08/18 06:54:35;;;;;;;12.87;9.40;;;18.10;99.90;;;;;;5114825;27;20226;-56
2023/08/18 06:57:02;;;;;;;18.63;9.20;;;18.20;99.90;;;;;;5103306;27;20229;-52
2023/08/18 06:59:29;;;;;;;10.80;8.00;;;18.20;99.90;;;;;;5103186;27;20682;-59
2023/08/18 07:01:56;;;;;;;10.90;7.83;;;18.20;99.90;;;;;;5099927;27;20196;-51
2023/08/18 07:04:23;;;;;;;10.77;7.67;;;18.30;99.90;;;;;;5109622;27;20192;-55
2023/08/18 07:06:51;;;;;;;10.50;8.30;;;18.30;99.90;;;;;;5116251;27;20219;-50
2023/08/18 07:09:18;;;;;;;14.17;9.50;;;18.30;99.90;;;;;;5107268;27;20196;-48
2023/08/18 07:11:45;;;;;;;14.90;9.60;;;18.30;99.90;;;;;;5099725;27;20195;-59
2023/08/18 07:14:12;;;;;;;12.20;9.47;;;18.40;99.90;;;;;;5094719;27;20205;-47
2023/08/18 07:16:39;;;;;;;14.10;9.83;;;18.30;99.90;;;;;;5117713;27;20297;-56
2023/08/18 07:19:06;;;;;;;13.20;9.90;;;18.30;99.90;;;;;;5126972;27;20196;-54
2023/08/18 07:21:34;;;;;;;12.87;9.43;;;18.40;99.90;;;;;;5121164;27;20268;-52
2023/08/18 07:24:03;;;;;;;13.20;10.50;;;18.40;99.90;;;;;;5114871;27;20272;-50
2023/08/18 07:26:30;;;;;;;12.70;9.50;;;18.40;99.90;;;;;;5097241;27;20220;-46
2023/08/18 07:28:57;;;;;;;14.33;10.10;;;18.40;99.90;;;;;;5100114;27;20249;-48
2023/08/18 07:31:24;;;;;;;13.87;10.40;;;18.40;99.90;;;;;;5123414;27;20200;-48
2023/08/18 07:33:52;;;;;;;12.33;10.30;;;18.40;99.90;;;;;;5098904;27;20250;-52
2023/08/18 07:36:19;;;;;;;11.73;9.73;;;18.40;99.90;;;;;;5133190;27;20231;-54
2023/08/18 07:38:46;;;;;;;11.63;10.03;;;18.40;99.90;;;;;;5109494;27;20196;-57
2023/08/18 07:41:14;;;;;;;11.37;8.77;;;18.50;99.90;;;;;;5116701;27;20291;-55
2023/08/18 07:43:41;;;;;;;10.57;9.33;;;18.50;99.90;;;;;;5107212;27;20611;-59
2023/08/18 07:46:10;;;;;;;10.17;8.80;;;18.50;99.90;;;;;;5122914;27;20221;-47
2023/08/18 07:48:38;;;;;;;13.27;10.10;;;18.50;99.90;;;;;;5104399;27;22937;-51
2023/08/18 07:51:05;;;;;;;10.20;9.20;;;18.60;99.90;;;;;;5125453;27;20193;-57
2023/08/18 07:53:32;;;;;;;13.00;11.10;;;18.60;99.90;;;;;;5117203;27;20188;-46
2023/08/18 07:55:59;;;;;;;13.10;9.50;;;18.60;99.90;;;;;;5116044;27;20637;-47
2023/08/18 07:58:27;;;;;;;14.90;8.90;;;18.60;99.90;;;;;;5113602;27;20192;-53
2023/08/18 08:00:55;;;;;;;9.47;8.57;;;18.70;99.90;;;;;;5097449;27;20249;-48
2023/08/18 08:03:22;;;;;;;13.17;10.10;;;18.80;99.90;;;;;;5111712;27;20269;-59
2023/08/18 08:05:49;;;;;;;11.87;10.57;;;18.80;99.90;;;;;;5110947;27;20221;-49
2023/08/18 08:08:16;;;;;;;14.30;10.60;;;18.90;99.90;;;;;;5100931;27;20197;-59
2023/08/18 08:10:43;;;;;;;11.40;9.63;;;18.90;99.90;;;;;;5113006;27;20318;-47
2023/08/18 08:13:09;;;;;;;14.03;9.33;;;19.00;99.90;;;;;;5108737;27;20196;-58
2023/08/18 08:15:38;;;;;;;12.97;10.43;;;19.00;99.90;;;;;;5104417;27;20216;-53
2023/08/18 08:18:05;;;;;;;11.73;10.00;;;19.00;99.90;;;;;;5124282;27;20187;-54
2023/08/18 08:20:32;;;;;;;10.63;8.73;;;19.00;99.90;;;;;;5119381;27;20193;-59
2023/08/18 08:22:59;;;;;;;12.33;9.60;;;19.10;99.90;;;;;;5107802;27;20221;-48
2023/08/18 08:25:26;;;;;;;11.00;9.50;;;19.10;99.90;;;;;;5122290;27;20580;-54
2023/08/18 08:27:54;;;;;;;10.57;8.80;;;19.10;99.90;;;;;;5100569;27;20204;-49
2023/08/18 08:30:20;;;;;;;9.93;8.30;;;19.00;99.90;;;;;;5107888;27;20277;-49
2023/08/18 08:32:49;;;;;;;12.30;9.73;;;19.10;99.90;;;;;;5117242;27;20811;-54
2023/08/18 08:35:16;;;;;;;10.67;8.97;;;19.10;99.90;;;;;;5119145;27;20670;-47
2023/08/18 08:37:42;;;;;;;10.75;8.63;;;19.10;99.90;;;;;;5104140;27;20217;-60
2023/08/18 08:40:17;;;;;;;13.95;8.60;;;19.10;99.90;;;;;;5128801;27;20200;-52
2023/08/18 08:42:44;;;;;;;13.37;9.77;;;19.20;99.90;;;;;;5104957;27;20212;-56
2023/08/18 08:45:12;;;;;;;11.48;9.40;;;19.20;99.90;;;;;;5106377;27;20621;-50
2023/08/18 08:47:39;;;;;;;12.10;9.53;;;19.30;99.90;;;;;;5104186;27;20747;-57
2023/08/18 08:50:08;;;;;;;10.38;8.40;;;19.40;99.90;;;;;;5127509;27;20193;-47
2023/08/18 08:52:39;;;;;;;10.07;9.07;;;19.50;99.90;;;;;;5117833;27;20196;-56
2023/08/18 08:55:07;;;;;;;13.97;10.43;;;19.60;99.90;;;;;;5112137;27;20208;-49
2023/08/18 08:57:36;;;;;;;12.05;10.18;;;19.60;99.90;;;;;;5110844;27;20196;-58
2023/08/18 09:00:04;;;;;;;11.70;10.55;;;19.60;99.90;;;;;;5106236;27;20181;-49
2023/08/18 09:02:30;;;;;;;12.20;10.57;;;19.50;99.90;;;;;;5109420;27;20203;-58
2023/08/18 09:05:00;;;;;;;11.93;9.85;;;19.40;99.90;;;;;;5121394;27;20177;-55
2023/08/18 09:07:29;;;;;;;10.65;9.65;;;19.50;99.90;;;;;;5110954;27;20201;-55
2023/08/18 09:09:56;;;;;;;11.77;10.13;;;19.50;99.90;;;;;;5111347;27;20185;-52
2023/08/18 09:12:28;;;;;;;13.50;10.50;;;19.60;99.90;;;;;;5122225;27;20196;-48
2023/08/18 09:14:55;;;;;;;15.10;10.30;;;19.70;99.90;;;;;;5093588;27;20208;-53
2023/08/18 09:17:22;;;;;;;10.38;9.32;;;19.70;99.90;;;;;;5101008;27;20273;-56
2023/08/18 09:19:49;;;;;;;10.25;8.95;;;19.70;99.90;;;;;;5123476;27;20284;-47
2023/08/18 09:22:21;;;;;;;12.07;10.30;;;19.80;99.90;;;;;;5122918;27;20193;-51
2023/08/18 09:24:50;;;;;;;10.98;9.85;;;19.80;99.90;;;;;;5101586;27;20249;-47
2023/08/18 09:27:17;;;;;;;12.10;8.63;;;19.90;99.90;;;;;;5122640;27;20216;-55
2023/08/18 09:29:44;;;;;;;10.82;9.75;;;20.00;99.90;;;;;;5105418;27;20273;-58
2023/08/18 09:32:11;;;;;;;12.73;9.18;;;20.00;99.90;;;;;;5104607;27;20293;-52
2023/08/18 09:34:38;;;;;;;10.13;8.95;;;20.00;99.90;;;;;;5126492;27;20211;-62
2023/08/18 09:37:05;;;;;;;12.20;10.35;;;20.10;99.90;;;;;;5128107;27;20212;-54
2023/08/18 09:39:32;;;;;;;9.90;8.98;;;20.10;99.90;;;;;;5114976;27;20205;-60
2023/08/18 09:42:01;;;;;;;10.07;9.07;;;20.10;99.90;;;;;;5112243;27;20184;-51
2023/08/18 09:44:28;;;;;;;10.93;9.65;;;20.20;99.90;;;;;;5115667;27;20265;-55
2023/08/18 09:46:56;;;;;;;10.23;8.45;;;20.30;99.90;;;;;;5088108;27;20381;-48
2023/08/18 09:49:24;;;;;;;11.38;9.27;;;20.40;99.90;;;;;;5129165;27;20248;-48
2023/08/18 09:51:53;;;;;;;11.60;9.85;;;20.50;99.90;;;;;;5128158;27;20248;-54
2023/08/18 09:54:21;;;;;;;11.07;9.13;;;20.60;99.90;;;;;;5119494;27;20184;-50
2023/08/18 09:56:51;;;;;;;15.15;11.07;;;20.60;99.90;;;;;;5097529;27;20244;-50
2023/08/18 09:59:23;;;;;;;9.45;8.65;;;20.70;99.90;;;;;;5120774;27;20693;-50
2023/08/18 10:01:52;;;;;;;10.43;8.85;;;20.60;99.90;;;;;;5108508;27;20256;-50
2023/08/18 10:04:25;;;;;;;11.30;9.85;;;20.70;99.90;;;;;;5122094;27;20645;-49
2023/08/18 10:06:53;;;;;;;9.63;8.75;;;20.80;99.90;;;;;;5117553;27;20219;-52
2023/08/18 10:09:22;;;;;;;9.77;8.13;;;20.80;99.90;;;;;;5119229;27;20272;-56
2023/08/18 10:11:50;;;;;;;9.00;8.13;;;21.20;99.90;;;;;;5107727;27;20328;-52
2023/08/18 10:14:18;;;;;;;9.23;8.30;;;21.40;99.90;;;;;;5127640;27;20247;-47
2023/08/18 10:16:47;;;;;;;9.50;8.57;;;21.60;99.90;;;;;;5095088;27;20221;-58
2023/08/18 10:19:15;;;;;;;9.07;7.68;;;21.70;99.90;;;;;;5119483;27;20236;-48
2023/08/18 10:21:42;;;;;;;9.90;7.85;;;21.70;99.90;;;;;;5123376;27;20193;-59
2023/08/18 10:24:10;;;;;;;9.55;8.02;;;21.70;99.90;;;;;;5120909;27;20218;-47
2023/08/18 10:26:43;;;;;;;9.20;8.23;;;21.60;99.90;;;;;;5101155;27;20635;-56
2023/08/18 10:29:16;;;;;;;9.73;8.15;;;21.50;99.90;;;;;;5112844;27;20212;-55
2023/08/18 10:31:51;;;;;;;9.77;8.73;;;21.50;99.90;;;;;;5105683;27;20192;-50
2023/08/18 10:34:22;;;;;;;9.40;7.85;;;21.40;99.90;;;;;;5104644;27;20261;-52
2023/08/18 10:36:57;;;;;;;8.57;7.30;;;21.40;99.90;;;;;;5121221;27;20269;-47
2023/08/18 10:39:25;;;;;;;12.55;8.63;;;21.40;99.90;;;;;;5119079;27;20283;-58
2023/08/18 10:42:08;;;;;;;10.77;8.85;;;21.40;99.90;;;;;;5109782;27;20220;-47
2023/08/18 10:44:36;;;;;;;9.60;8.77;;;21.30;99.90;;;;;;5110189;27;20867;-59
2023/08/18 10:47:28;;;;;;;9.32;7.97;;;21.20;99.90;;;;;;5105702;27;20217;-54
2023/08/18 10:49:55;;;;;;;9.18;8.30;;;21.20;99.90;;;;;;5111269;27;20205;-57
2023/08/18 10:52:23;;;;;;;9.38;8.52;;;21.20;99.90;;;;;;5114490;27;20235;-48
2023/08/18 10:54:49;;;;;;;9.35;8.35;;;21.30;99.90;;;;;;5112790;27;20782;-57
2023/08/18 10:57:16;;;;;;;9.25;8.32;;;21.30;99.90;;;;;;5116472;27;20994;-50
2023/08/18 10:59:43;;;;;;;11.70;8.93;;;21.40;99.90;;;;;;5102328;27;20628;-55
2023/08/18 11:02:13;;;;;;;8.88;8.02;;;21.60;99.90;;;;;;5117321;27;20261;-51
2023/08/18 11:04:40;;;;;;;9.07;8.27;;;21.70;99.90;;;;;;5117722;27;20224;-49
2023/08/18 11:07:07;;;;;;;9.80;8.90;;;21.90;99.90;;;;;;5118887;27;20225;-51
2023/08/18 11:09:36;;;;;;;10.02;9.13;;;21.80;99.90;;;;;;5132524;27;20197;-50
2023/08/18 11:12:03;;;;;;;9.57;7.70;;;21.70;99.90;;;;;;5111014;27;21217;-48
2023/08/18 11:14:30;;;;;;;10.20;9.20;;;21.70;99.90;;;;;;5122308;27;20208;-50
2023/08/18 11:16:57;;;;;;;8.85;7.95;;;21.70;99.90;;;;;;5121325;27;20268;-51
2023/08/18 11:19:25;;;;;;;9.15;8.18;;;21.70;99.90;;;;;;5126979;27;20287;-56
2023/08/18 11:21:53;;;;;;;12.15;8.77;;;21.70;99.90;;;;;;5098452;27;20294;-52
2023/08/18 11:24:19;;;;;;;8.30;7.45;;;21.70;99.90;;;;;;5122070;27;20901;-57
2023/08/18 11:26:47;;;;;;;8.77;7.90;;;21.80;99.90;;;;;;5116500;27;20236;-50
2023/08/18 11:29:15;;;;;;;8.18;7.45;;;21.90;99.90;;;;;;5103134;27;20197;-55
2023/08/18 11:31:45;;;;;;;8.90;7.82;;;22.00;99.90;;;;;;5093427;27;20654;-53
2023/08/18 11:34:12;;;;;;;7.88;7.13;;;22.00;99.90;;;;;;5115850;27;20275;-58
2023/08/18 11:36:41;;;;;;;8.30;7.53;;;22.20;99.90;;;;;;5102487;27;20224;-51
2023/08/18 11:39:11;;;;;;;7.43;6.57;;;22.30;99.90;;;;;;5104553;27;20233;-57
2023/08/18 11:41:38;;;;;;;9.60;6.80;;;22.40;99.90;;;;;;5102537;27;20205;-51
2023/08/18 11:44:07;;;;;;;8.07;7.47;;;22.60;99.90;;;;;;5103628;27;21030;-55
2023/08/18 11:46:35;;;;;;;8.30;7.10;;;22.70;99.90;;;;;;5104791;27;20286;-50
2023/08/18 11:49:03;;;;;;;8.43;7.57;;;22.90;99.90;;;;;;5111282;27;20871;-55
2023/08/18 11:51:31;;;;;;;8.02;7.18;;;22.90;99.90;;;;;;5112315;27;20197;-53
2023/08/18 11:54:11;;;;;;;9.63;8.70;;;22.80;99.90;;;;;;5093296;27;20223;-55
2023/08/18 11:56:39;;;;;;;9.88;7.85;;;22.80;99.90;;;;;;5115302;27;20287;-55
2023/08/18 11:59:05;;;;;;;7.45;6.78;;;22.80;99.90;;;;;;5108191;27;20247;-53
2023/08/18 12:01:34;;;;;;;7.78;6.90;;;23.00;99.90;;;;;;5100040;27;20249;-51
2023/08/18 12:04:01;;;;;;;7.45;6.88;;;23.20;99.90;;;;;;5114451;27;20218;-57
2023/08/18 12:06:28;;;;;;;8.23;6.85;;;23.40;99.90;;;;;;5112936;27;20845;-54
2023/08/18 12:08:55;;;;;;;6.63;6.05;;;23.50;99.90;;;;;;5105464;27;20254;-57
2023/08/18 12:11:23;;;;;;;9.38;7.35;;;23.60;99.90;;;;;;5112736;27;20197;-51
2023/08/18 12:13:50;;;;;;;8.05;7.03;;;23.80;99.90;;;;;;5116201;27;20192;-56
2023/08/18 12:16:17;;;;;;;7.35;6.70;;;23.80;99.90;;;;;;5118363;27;20243;-57
2023/08/18 12:18:43;;;;;;;7.35;6.68;;;23.70;99.90;;;;;;5106027;27;20189;-58
2023/08/18 12:21:10;;;;;;;8.02;6.60;;;23.80;99.90;;;;;;5124959;27;20196;-56
2023/08/18 12:23:37;;;;;;;8.43;6.75;;;24.00;99.90;;;;;;5093794;27;20204;-51
2023/08/18 12:26:04;;;;;;;8.20;6.18;;;24.00;99.90;;;;;;5111498;27;20216;-58
2023/08/18 12:28:33;;;;;;;8.57;7.28;;;24.10;99.90;;;;;;5105554;27;20239;-51
2023/08/18 12:31:01;;;;;;;8.27;7.50;;;24.20;99.90;;;;;;5109378;27;20208;-58
2023/08/18 12:33:28;;;;;;;7.65;6.40;;;24.30;99.90;;;;;;5120225;27;20551;-53
2023/08/18 12:35:56;;;;;;;7.43;6.63;;;;;;;;;;5105791;27;20217;-53
2023/08/18 12:38:22;;;;;;;6.53;5.93;;;24.60;99.90;;;;;;5106178;27;20209;-51
2023/08/18 12:40:50;;;;;;;7.43;6.18;;;24.60;99.90;;;;;;5088570;27;20225;-50
2023/08/18 12:43:17;;;;;;;6.90;6.30;;;24.60;99.90;;;;;;5094181;27;20203;-56
2023/08/18 12:45:45;;;;;;;8.07;7.28;;;24.60;99.90;;;;;;5106464;27;20224;-52